Time;durP1;ratioP1;P1;durP2;ratioP2;P2;SDS_P1;SDS_P2;PMS_P1;PMS_P2;Temp;Humidity;BMP_temperature;BMP_pressure;BME280_temperature;BME280_humidity;BME280_pressure;Samples;Min_cycle;Max_cycle;Signal;HPM_P1;HPM_P2
2022/05/11 00:01:40;;;;;;;;;9.33;7.33;;;;;22.09;80.69;101173.09;4957445;28;45361;-75
2022/05/11 00:04:07;;;;;;;;;9.67;7.00;;;;;22.01;81.71;101172.47;4957681;28;45615;-74
2022/05/11 00:06:33;;;;;;;;;10.33;7.00;;;;;22.03;81.71;101173.31;4956466;28;45942;-73
2022/05/11 00:08:59;;;;;;;;;8.67;8.00;;;;;21.99;82.04;101179.69;4956390;28;45222;-76
2022/05/11 00:11:27;;;;;;;;;8.33;7.00;;;;;21.93;82.18;101170.00;4957614;28;45399;-74
2022/05/11 00:13:52;;;;;;;;;9.00;7.33;;;;;21.92;82.53;101180.81;4960142;28;45353;-74
2022/05/11 00:16:18;;;;;;;;;7.33;7.33;;;;;21.85;82.41;101166.69;4960962;28;45738;-74
2022/05/11 00:18:43;;;;;;;;;9.00;9.00;;;;;21.83;82.80;101163.16;4960169;28;61563;-74
2022/05/11 00:21:09;;;;;;;;;12.33;9.67;;;;;21.83;83.22;101162.28;4960757;28;45617;-75
2022/05/11 00:23:34;;;;;;;;;8.00;8.00;;;;;21.83;83.44;101168.53;4960831;28;45655;-74
2022/05/11 00:26:00;;;;;;;;;9.33;8.00;;;;;21.79;83.31;101163.31;4960379;28;46523;-74
2022/05/11 00:28:25;;;;;;;;;6.00;6.00;;;;;21.76;83.64;101160.72;4959889;28;58329;-74
2022/05/11 00:30:51;;;;;;;;;8.00;7.33;;;;;21.73;83.66;101152.72;4960702;28;45437;-74
2022/05/11 00:33:17;;;;;;;;;15.33;13.67;;;;;21.71;83.89;101158.16;4960638;28;45399;-74
2022/05/11 00:35:46;;;;;;;;;13.00;10.00;;;;;21.68;83.43;101153.75;4960481;28;45331;-75
2022/05/11 00:38:13;;;;;;;;;14.00;13.33;;;;;21.66;83.46;101150.22;4960347;28;45432;-74
2022/05/11 00:40:43;;;;;;;;;11.33;10.33;;;;;21.63;84.01;101142.28;4960423;28;45421;-76
2022/05/11 00:43:09;;;;;;;;;9.00;8.00;;;;;21.60;84.28;101136.09;4960447;28;45573;-73
2022/05/11 00:45:36;;;;;;;;;6.00;6.00;;;;;21.55;84.97;101136.22;4959703;28;60823;-73
2022/05/11 00:49:33;;;;;;;;;11.00;7.00;;;;;21.54;84.89;101136.28;4959187;28;45256;-73
2022/05/11 00:50:51;;;;;;;;;6.67;6.67;;;;;21.49;85.11;101133.72;4959315;28;45363;-74
2022/05/11 00:53:17;;;;;;;;;9.00;4.33;;;;;21.44;85.18;101124.91;4960056;28;47871;-73
2022/05/11 00:56:03;;;;;;;;;5.00;5.00;;;;;21.45;85.12;101118.59;4958735;28;47822;-74
2022/05/11 00:58:58;;;;;;;;;6.00;5.00;;;;;21.43;85.20;101123.16;4959717;28;45308;-74
2022/05/11 01:01:24;;;;;;;;;6.00;5.00;;;;;21.38;85.85;101114.34;4957735;28;45529;-76
2022/05/11 01:04:12;;;;;;;;;5.67;5.00;;;;;21.39;85.28;101113.41;4959119;28;45340;-74
2022/05/11 01:06:38;;;;;;;;;5.00;5.00;;;;;21.34;86.15;101113.56;4959401;28;47371;-73
2022/05/11 01:09:05;;;;;;;;;4.33;3.67;;;;;21.33;86.52;101108.22;4960011;28;45309;-73
2022/05/11 01:11:30;;;;;;;;;7.00;7.00;;;;;21.30;86.00;101101.13;4960359;28;45433;-75
2022/05/11 01:13:57;;;;;;;;;7.67;7.67;;;;;21.24;86.87;101095.03;4959097;28;45355;-73
2022/05/11 01:16:23;;;;;;;;;6.00;6.00;;;;;21.18;87.31;101093.41;4959803;28;45631;-75
2022/05/11 01:18:49;;;;;;;;;5.00;4.00;;;;;21.14;87.01;101089.91;4958486;28;45313;-74
2022/05/11 01:21:14;;;;;;;;;12.00;6.00;;;;;21.12;87.35;101088.22;4958943;28;45231;-73
2022/05/11 01:24:03;;;;;;;;;7.00;5.33;;;;;21.09;87.68;101088.28;4959253;28;56469;-74
2022/05/11 01:26:32;;;;;;;;;6.33;5.00;;;;;21.09;87.59;101094.56;4958048;28;46967;-74
2022/05/11 01:28:58;;;;;;;;;6.00;6.00;;;;;21.04;88.37;101074.09;4959407;28;45227;-74
2022/05/11 01:31:23;;;;;;;;;6.67;6.00;;;;;21.01;88.42;101075.09;4959276;28;55492;-74
2022/05/11 01:33:50;;;;;;;;;7.33;6.00;;;;;21.01;88.21;101084.94;4959902;28;45421;-74
2022/05/11 01:36:34;;;;;;;;;8.33;5.00;;;;;20.94;88.98;101084.25;4959351;28;45668;-74
2022/05/11 01:39:04;;;;;;;;;6.67;6.00;;;;;20.93;89.02;101088.75;4959344;28;45370;-74
2022/05/11 01:41:33;;;;;;;;;9.00;7.33;;;;;20.87;89.38;101079.94;4959511;28;45329;-74
2022/05/11 01:43:59;;;;;;;;;8.67;6.33;;;;;20.87;89.97;101082.63;4959661;28;45610;-74
2022/05/11 01:46:25;;;;;;;;;7.67;7.67;;;;;20.84;89.58;101088.09;4959266;28;46458;-73
2022/05/11 01:48:51;;;;;;;;;6.00;6.00;;;;;20.82;90.26;101093.50;4959285;28;45151;-74
2022/05/11 01:51:18;;;;;;;;;6.00;6.00;;;;;20.78;89.98;101080.22;4959563;28;45219;-74
2022/05/11 01:53:44;;;;;;;;;5.33;5.00;;;;;20.78;90.27;101090.97;4958183;28;45691;-75
2022/05/11 01:56:10;;;;;;;;;5.67;5.67;;;;;20.74;90.62;101087.47;4959147;28;45679;-73
2022/05/11 01:58:36;;;;;;;;;7.00;5.33;;;;;20.70;91.18;101084.91;4959293;28;45425;-73
2022/05/11 02:01:02;;;;;;;;;5.00;5.00;;;;;20.66;91.16;101079.59;4959270;28;45337;-75
2022/05/11 02:03:27;;;;;;;;;6.00;5.00;;;;;20.66;90.91;101078.72;4959192;28;45499;-73
2022/05/11 02:08:43;;;;;;;;;4.33;4.33;;;;;20.61;91.36;101081.56;4959165;28;45156;-74
2022/05/11 02:11:08;;;;;;;;;6.67;5.00;;;;;20.60;91.57;101073.53;4959225;28;45332;-73
2022/05/11 02:13:34;;;;;;;;;9.33;6.00;;;;;20.57;91.58;101065.59;4959344;28;45357;-74
2022/05/11 02:16:00;;;;;;;;;2.00;2.00;;;;;20.52;92.06;101071.06;4958827;28;46259;-75
2022/05/11 02:18:25;;;;;;;;;5.00;3.67;;;;;20.50;92.05;101072.00;4958862;28;45414;-73
2022/05/11 02:20:50;;;;;;;;;5.67;5.00;;;;;20.46;92.91;101070.31;4958411;28;57400;-73
2022/05/11 02:23:17;;;;;;;;;3.67;3.67;;;;;20.41;93.40;101067.75;4959644;28;45548;-74
2022/05/11 02:25:45;;;;;;;;;6.33;5.00;;;;;20.38;93.55;101068.69;4959798;28;45788;-74
2022/05/11 02:28:12;;;;;;;;;5.00;5.00;;;;;20.35;93.98;101071.47;4958885;28;45206;-74
2022/05/11 02:30:38;;;;;;;;;7.33;6.00;;;;;20.34;93.66;101068.81;4959055;28;45170;-74
2022/05/11 02:33:03;;;;;;;;;5.00;5.00;;;;;20.31;93.82;101067.09;4957726;28;45353;-73
2022/05/11 02:35:29;;;;;;;;;5.00;5.00;;;;;20.31;93.63;101068.91;4958219;28;46126;-73
2022/05/11 02:38:00;;;;;;;;;7.00;6.00;;;;;20.26;94.31;101063.66;4957317;28;57742;-73
2022/05/11 02:40:28;;;;;;;;;7.00;6.67;;;;;20.23;94.04;101055.66;4958341;28;45442;-75
2022/05/11 02:42:53;;;;;;;;;5.00;5.00;;;;;20.23;95.12;101058.34;4958781;28;45385;-75
2022/05/11 02:45:20;;;;;;;;;6.67;5.67;;;;;20.25;94.57;101061.03;4958453;28;46592;-73
2022/05/11 02:47:47;;;;;;;;;5.33;5.33;;;;;20.22;94.78;101056.59;4958423;28;45295;-73
2022/05/11 02:50:15;;;;;;;;;4.67;4.67;;;;;20.17;94.84;101054.94;4958540;28;45290;-74
2022/05/11 02:52:40;;;;;;;;;6.00;6.00;;;;;20.11;95.30;101056.00;4958737;28;45540;-73
2022/05/11 02:55:06;;;;;;;;;5.67;5.67;;;;;20.11;96.34;101056.00;4958371;28;45389;-74
2022/05/11 02:57:32;;;;;;;;;7.00;4.67;;;;;20.06;96.25;101049.84;4958384;28;45253;-73
2022/05/11 03:00:01;;;;;;;;;6.00;5.33;;;;;20.04;96.17;101051.72;4957847;28;57401;-73
2022/05/11 03:02:26;;;;;;;;;4.67;4.67;;;;;20.00;96.83;101058.94;4958545;28;45463;-73
2022/05/11 03:04:52;;;;;;;;;6.00;6.00;;;;;19.91;97.54;101053.78;4956911;28;46973;-73
2022/05/11 03:07:18;;;;;;;;;7.00;4.67;;;;;19.93;97.35;101056.44;4958352;28;45335;-73
2022/05/11 03:09:43;;;;;;;;;5.67;4.67;;;;;19.87;97.61;101053.00;4958314;28;45305;-74
2022/05/11 03:12:09;;;;;;;;;5.33;5.33;;;;;19.87;98.39;101062.84;4956929;28;45599;-73
2022/05/11 03:14:35;;;;;;;;;6.00;5.67;;;;;19.84;98.35;101058.41;4957963;28;47302;-75
2022/05/11 03:17:02;;;;;;;;;9.00;7.00;;;;;19.80;98.06;101050.47;4957677;28;50725;-73
2022/05/11 03:19:27;;;;;;;;;5.33;5.33;;;;;19.84;98.49;101054.84;4958202;28;45242;-73
2022/05/11 03:21:53;;;;;;;;;7.33;7.33;;;;;19.82;99.45;101046.88;4958169;28;45430;-73
2022/05/11 03:24:19;;;;;;;;;11.67;10.33;;;;;19.78;99.74;101047.84;4956665;28;45496;-75
2022/05/11 03:26:44;;;;;;;;;10.00;10.00;;;;;19.80;100.00;101047.81;4957740;28;45350;-74
2022/05/11 03:29:10;;;;;;;;;13.33;9.33;;;;;19.77;100.00;101054.13;4957751;28;55595;-75
2022/05/11 03:31:36;;;;;;;;;10.33;8.00;;;;;19.73;100.00;101041.72;4956877;28;45648;-72
2022/05/11 03:36:49;;;;;;;;;14.33;12.67;;;;;19.68;100.00;101046.31;4957566;28;45489;-76
2022/05/11 03:39:15;;;;;;;;;9.67;9.33;;;;;19.68;100.00;101045.41;4957808;28;45306;-73
2022/05/11 03:41:42;;;;;;;;;12.00;10.67;;;;;19.64;100.00;101039.25;4957643;28;45321;-75
2022/05/11 03:44:07;;;;;;;;;15.67;11.00;;;;;19.66;100.00;101044.59;4957857;28;45977;-75
2022/05/11 03:46:33;;;;;;;;;12.00;9.67;;;;;19.64;100.00;101041.91;4957668;28;45453;-75
2022/05/11 03:48:58;;;;;;;;;12.67;10.00;;;;;19.63;100.00;101045.53;4959925;28;54327;-75
2022/05/11 03:51:24;;;;;;;;;14.33;10.67;;;;;19.61;100.00;101042.88;4959638;28;51208;-75
2022/05/11 03:53:49;;;;;;;;;9.33;8.67;;;;;19.58;100.00;101042.91;4960986;28;46232;-75
2022/05/11 03:56:15;;;;;;;;;8.33;8.33;;;;;19.56;100.00;101049.22;4961158;28;45353;-75
2022/05/11 03:58:41;;;;;;;;;11.00;10.33;;;;;19.56;100.00;101049.22;4961188;28;45298;-75
2022/05/11 04:01:06;;;;;;;;;16.00;10.33;;;;;19.53;100.00;101049.28;4961009;28;45262;-75
2022/05/11 04:03:32;;;;;;;;;12.00;8.33;;;;;19.46;100.00;101045.88;4960164;28;65488;-76
2022/05/11 04:05:57;;;;;;;;;13.33;10.00;;;;;19.46;100.00;101043.19;4961014;28;45475;-75
2022/05/11 04:08:22;;;;;;;;;9.67;9.67;;;;;19.45;100.00;101049.47;4960848;28;52809;-75
2022/05/11 04:10:48;;;;;;;;;10.00;8.67;;;;;19.38;100.00;101043.34;4959796;28;45510;-76
2022/05/11 04:13:13;;;;;;;;;10.67;10.67;;;;;19.41;100.00;101047.78;4960919;28;45878;-75
2022/05/11 04:15:38;;;;;;;;;10.33;8.67;;;;;19.40;100.00;101051.38;4959102;28;60734;-75
2022/05/11 04:18:04;;;;;;;;;9.00;9.00;;;;;19.39;100.00;101054.97;4960466;28;54098;-75
2022/05/11 04:20:29;;;;;;;;;12.00;10.33;;;;;19.36;100.00;101055.03;4960819;28;45618;-74
2022/05/11 04:22:55;;;;;;;;;10.00;10.00;;;;;19.41;100.00;101055.81;4960055;28;60457;-76
2022/05/11 04:25:21;;;;;;;;;12.33;10.00;;;;;19.40;100.00;101045.13;4960634;28;45210;-75
2022/05/11 04:27:48;;;;;;;;;12.00;9.33;;;;;19.38;100.00;101056.72;4960047;28;51596;-76
2022/05/11 04:30:15;;;;;;;;;13.00;11.00;;;;;19.37;100.00;101048.75;4960764;28;45474;-75
2022/05/11 04:32:40;;;;;;;;;12.00;11.00;;;;;19.34;100.00;101051.50;4960520;28;45593;-75
2022/05/11 04:35:07;;;;;;;;;11.00;11.00;;;;;19.31;100.00;101054.25;4960349;28;45318;-75
2022/05/11 04:37:32;;;;;;;;;10.33;9.67;;;;;19.28;100.00;101052.53;4960812;28;45308;-74
2022/05/11 04:39:57;;;;;;;;;11.67;11.33;;;;;19.26;100.00;101054.34;4959711;28;53131;-74
2022/05/11 04:42:23;;;;;;;;;11.33;11.33;;;;;19.25;100.00;101060.59;4959385;28;46091;-74
2022/05/11 04:44:49;;;;;;;;;13.00;10.00;;;;;19.20;100.00;101046.44;4958133;28;45364;-76
2022/05/11 04:47:16;;;;;;;;;10.00;10.00;;;;;19.21;100.00;101050.88;4959534;28;55999;-74
2022/05/11 04:49:42;;;;;;;;;12.33;12.00;;;;;19.20;100.00;101053.59;4960233;28;45334;-76
2022/05/11 04:52:16;;;;;;;;;12.00;10.67;;;;;19.19;100.00;101046.47;4960172;28;45394;-73
2022/05/11 04:54:49;;;;;;;;;13.00;12.00;;;;;19.21;100.00;101050.88;4959023;28;45561;-73
2022/05/11 04:57:15;;;;;;;;;11.67;10.33;;;;;19.23;100.00;101053.50;4960203;28;45376;-74
2022/05/11 04:59:40;;;;;;;;;10.33;10.33;;;;;19.24;100.00;101055.28;4974263;28;45230;-73
2022/05/11 05:02:07;;;;;;;;;12.67;11.33;;;;;19.23;100.00;101053.50;4959920;28;46441;-74
2022/05/11 05:04:33;;;;;;;;;16.00;13.00;;;;;19.18;100.00;101047.41;4958630;28;45380;-74
2022/05/11 05:06:59;;;;;;;;;10.33;10.00;;;;;19.20;100.00;101054.47;4959668;28;45402;-74
2022/05/11 05:09:25;;;;;;;;;13.00;12.00;;;;;19.21;100.00;101058.03;4959942;28;45425;-73
2022/05/11 05:11:50;;;;;;;;;15.00;11.67;;;;;19.17;100.00;101049.16;4959777;28;45417;-74
2022/05/11 05:14:16;;;;;;;;;11.00;10.00;;;;;19.19;100.00;101051.84;4959313;28;60537;-74
2022/05/11 05:16:41;;;;;;;;;15.00;12.00;;;;;19.19;100.00;101057.19;4959955;28;45503;-73
2022/05/11 05:19:07;;;;;;;;;13.00;10.33;;;;;19.14;100.00;101043.91;4959460;28;51160;-73
2022/05/11 05:21:33;;;;;;;;;16.00;12.33;;;;;19.10;100.00;101051.09;4959634;28;46327;-74
2022/05/11 05:23:59;;;;;;;;;12.00;11.00;;;;;19.07;100.00;101044.94;4959835;28;45413;-74
2022/05/11 05:31:35;;;;;;;;;12.00;12.00;;;;;19.08;100.00;101054.72;4939178;28;45381;-74
2022/05/11 05:34:00;;;;;;;;;18.00;14.00;;;;;19.11;100.00;101063.56;4939768;28;55901;-73
2022/05/11 05:36:31;;;;;;;;;13.33;13.33;;;;;19.07;100.00;101050.28;4929968;28;45485;-74
2022/05/11 05:38:58;;;;;;;;;16.00;13.00;;;;;19.14;100.00;101057.28;4921355;28;45271;-74
2022/05/11 05:41:24;;;;;;;;;16.67;15.00;;;;;19.15;100.00;101059.03;4937469;28;47276;-74
2022/05/11 05:43:50;;;;;;;;;15.00;13.33;;;;;19.18;100.00;101064.34;4929187;28;45293;-75
2022/05/11 05:46:17;;;;;;;;;12.33;10.33;;;;;19.14;100.00;101059.06;4928240;28;45286;-76
2022/05/11 05:48:43;;;;;;;;;17.67;11.00;;;;;19.10;100.00;101045.75;4924038;28;45200;-74
2022/05/11 05:51:10;;;;;;;;;13.33;13.33;;;;;19.16;100.00;101062.59;4928535;28;46241;-74
2022/05/11 05:53:36;;;;;;;;;12.00;12.00;;;;;19.15;100.00;101058.16;4923589;28;45334;-74
2022/05/11 05:56:02;;;;;;;;;13.33;11.67;;;;;19.13;100.00;101055.53;4920543;28;45473;-73
2022/05/11 05:58:28;;;;;;;;;14.67;11.00;;;;;19.13;100.00;101058.19;4933716;28;45409;-73
2022/05/11 06:00:53;;;;;;;;;13.00;10.00;;;;;19.14;100.00;101062.63;4936542;28;45962;-73
2022/05/11 06:03:23;;;;;;;;;15.00;15.00;;;;;19.11;100.00;101062.69;4933980;28;45390;-74
2022/05/11 06:05:48;;;;;;;;;13.67;12.33;;;;;19.14;100.00;101073.34;4939683;28;45506;-73
2022/05/11 06:08:16;;;;;;;;;12.00;12.00;;;;;19.15;100.00;101069.75;4939337;28;45338;-74
2022/05/11 06:10:41;;;;;;;;;12.67;12.67;;;;;19.18;100.00;101066.13;4930238;28;46428;-74
2022/05/11 06:13:07;;;;;;;;;12.00;10.33;;;;;19.21;100.00;101074.97;4939168;28;45339;-75
2022/05/11 06:15:34;;;;;;;;;12.00;10.00;;;;;19.24;100.00;101066.88;4954656;28;45411;-74
2022/05/11 06:17:59;;;;;;;;;16.00;13.33;;;;;19.22;100.00;101057.97;4939257;28;45576;-74
2022/05/11 06:20:25;;;;;;;;;14.67;13.33;;;;;19.28;100.00;101070.34;4932225;28;46542;-75
2022/05/11 06:22:50;;;;;;;;;14.67;12.33;;;;;19.27;100.00;101052.53;4937249;28;60468;-74
2022/05/11 06:25:18;;;;;;;;;13.00;11.00;;;;;19.24;100.00;101041.91;4938565;28;45410;-76
2022/05/11 06:27:44;;;;;;;;;12.00;12.00;;;;;19.32;100.00;101051.50;4931901;28;45493;-70
2022/05/11 06:30:10;;;;;;;;;13.67;13.33;;;;;19.30;100.00;101058.72;4936125;28;45280;-71
2022/05/11 06:32:36;;;;;;;;;15.33;13.67;;;;;19.21;100.00;101058.91;4930224;28;45987;-71
2022/05/11 06:35:01;;;;;;;;;13.00;13.00;;;;;19.17;100.00;101054.50;4935892;28;45457;-70
2022/05/11 06:37:26;;;;;;;;;12.33;12.33;;;;;19.16;100.00;101060.78;4939158;28;45563;-71
2022/05/11 06:39:52;;;;;;;;;14.67;13.33;;;;;19.15;100.00;101072.41;4934493;28;51624;-70
2022/05/11 06:42:20;;;;;;;;;14.00;12.67;;;;;19.04;100.00;101064.59;4935882;28;45876;-71
2022/05/11 06:44:45;;;;;;;;;14.33;13.00;;;;;19.01;100.00;101075.34;4938844;28;45526;-71
2022/05/11 06:47:10;;;;;;;;;16.67;15.00;;;;;19.02;100.00;101068.25;4938537;28;45558;-70
2022/05/11 06:49:36;;;;;;;;;12.00;12.00;;;;;19.02;100.00;101063.78;4938498;28;46179;-70
2022/05/11 06:52:02;;;;;;;;;19.33;15.00;;;;;19.01;100.00;101061.09;4930756;28;45439;-71
2022/05/11 06:59:57;;;;;;;;;15.33;12.00;;;;;19.13;100.00;101055.53;4927821;28;45864;-70
2022/05/11 07:02:24;;;;;;;;;12.00;12.00;;;;;19.15;100.00;101059.03;4938079;28;62150;-71
2022/05/11 07:04:49;;;;;;;;;11.33;11.33;;;;;19.11;100.00;101060.00;4938714;28;45214;-72
2022/05/11 07:07:16;;;;;;;;;13.33;12.33;;;;;19.11;100.00;101057.31;4937703;28;45346;-70
2022/05/11 07:09:42;;;;;;;;;12.67;11.67;;;;;19.18;100.00;101063.47;4934790;28;46464;-74
2022/05/11 07:15:38;;;;;;;;;13.33;12.00;;;;;19.28;100.00;101059.66;4935838;28;45557;-72
2022/05/11 07:18:03;;;;;;;;;11.67;10.67;;;;;19.30;100.00;101056.03;4938611;28;45207;-70
2022/05/11 07:20:34;;;;;;;;;10.00;10.00;;;;;19.34;100.00;101051.50;4938359;28;45588;-73
2022/05/11 07:23:01;;;;;;;;;10.33;10.33;;;;;19.39;100.00;101054.97;4936533;28;45523;-71
2022/05/11 07:25:27;;;;;;;;;15.00;13.33;;;;;19.46;100.00;101047.69;4938607;28;45359;-73
2022/05/11 07:27:53;;;;;;;;;10.33;8.33;;;;;19.50;100.00;101047.56;4938479;28;45163;-71
2022/05/11 07:30:26;;;;;;;;;14.33;10.67;;;;;19.54;100.00;101056.41;4935404;28;46460;-73
2022/05/11 07:32:51;;;;;;;;;13.00;11.67;;;;;19.59;100.00;101049.19;4924688;28;45468;-73
2022/05/11 07:35:16;;;;;;;;;12.33;10.67;;;;;19.64;100.00;101063.34;4936046;28;45884;-71
2022/05/11 07:37:46;;;;;;;;;13.00;10.33;;;;;19.71;100.00;101061.41;4938193;28;45460;-73
2022/05/11 07:40:12;;;;;;;;;11.00;9.33;;;;;19.75;100.00;101055.06;4937662;28;46526;-72
2022/05/11 07:42:37;;;;;;;;;11.33;9.67;;;;;19.77;100.00;101053.25;4937970;28;45484;-72
2022/05/11 07:45:03;;;;;;;;;9.33;9.33;;;;;19.79;100.00;101057.66;4938025;28;56233;-73
2022/05/11 07:47:29;;;;;;;;;8.67;8.67;;;;;19.80;100.00;101056.72;4938672;28;45574;-73
2022/05/11 07:49:55;;;;;;;;;8.67;7.33;;;;;19.73;100.00;101055.13;4938421;28;45694;-75
2022/05/11 07:52:20;;;;;;;;;12.33;10.67;;;;;19.84;100.00;101060.22;4938437;28;45318;-74
2022/05/11 07:54:46;;;;;;;;;9.33;8.00;;;;;19.87;100.00;101062.84;4932943;28;45588;-72
2022/05/11 07:59:56;;;;;;;;;9.67;9.67;;;;;19.98;100.00;101060.78;4937680;28;45326;-74
2022/05/11 08:02:33;;;;;;;;;8.00;8.00;;;;;20.04;100.00;101057.06;4937991;28;45346;-74
2022/05/11 08:05:01;;;;;;;;;10.00;9.67;;;;;20.11;100.00;101058.66;4946525;28;45921;-73
2022/05/11 08:07:29;;;;;;;;;9.00;9.00;;;;;20.18;100.00;101054.03;4938083;28;45579;-71
2022/05/11 08:09:59;;;;;;;;;13.67;10.00;;;;;20.28;100.00;101061.81;4936749;28;46368;-73
2022/05/11 08:12:25;;;;;;;;;9.00;5.67;;;;;20.32;100.00;101059.94;4937475;28;45491;-72
2022/05/11 08:14:51;;;;;;;;;8.67;6.00;;;;;20.46;100.00;101051.53;4938104;28;45204;-73
2022/05/11 08:17:30;;;;;;;;;10.00;7.00;;;;;20.50;100.00;101047.88;4937959;28;45149;-73
2022/05/11 08:19:56;;;;;;;;;6.00;6.00;;;;;20.57;100.00;101041.44;4937694;28;45921;-73
2022/05/11 08:22:21;;;;;;;;;9.00;7.00;;;;;20.65;100.00;101044.78;4937239;28;58361;-74
2022/05/11 08:24:48;;;;;;;;;8.33;6.00;;;;;20.66;100.00;101043.84;4937600;28;45295;-72
2022/05/11 08:27:20;;;;;;;;;8.67;6.33;;;;;20.73;100.00;101033.84;4937686;28;45437;-72
2022/05/11 08:35:14;;;;;;;;;12.67;5.33;;;;;20.89;100.00;101041.44;4938574;28;45428;-74
2022/05/11 08:37:40;;;;;;;;;4.00;4.00;;;;;20.87;93.88;101045.94;4940661;28;53050;-71
2022/05/11 08:40:06;;;;;;;;;4.67;4.67;;;;;20.92;95.88;101044.00;4940595;28;45497;-72
2022/05/11 08:42:32;;;;;;;;;3.33;3.33;;;;;20.96;92.34;101043.94;4940644;28;45257;-72
2022/05/11 08:45:01;;;;;;;;;5.00;5.00;;;;;20.98;93.41;101034.88;4939917;28;45360;-72
2022/05/11 08:47:30;;;;;;;;;4.00;3.00;;;;;21.06;92.01;101046.31;4939375;28;45718;-71
2022/05/11 08:50:11;;;;;;;;;3.00;3.00;;;;;21.13;92.35;101047.00;4941055;28;46383;-72
2022/05/11 08:52:50;;;;;;;;;4.00;4.00;;;;;21.17;87.29;101054.94;4940676;28;45341;-72
2022/05/11 08:55:41;;;;;;;;;7.00;4.33;;;;;21.25;90.11;101053.81;4941203;28;45318;-73
2022/05/11 08:58:12;;;;;;;;;5.67;4.67;;;;;21.25;89.39;101035.00;4942031;28;45721;-72
2022/05/11 09:00:39;;;;;;;;;4.00;4.00;;;;;21.32;88.93;101047.38;4941091;28;47622;-73
2022/05/11 09:03:18;;;;;;;;;4.67;4.00;;;;;21.34;87.08;101034.78;4942490;28;45238;-73
2022/05/11 09:05:43;;;;;;;;;6.00;3.00;;;;;21.37;87.01;101032.88;4943118;28;45341;-73
2022/05/11 09:08:10;;;;;;;;;5.67;5.00;;;;;21.39;84.38;101035.53;4940830;28;53112;-72
2022/05/11 09:10:37;;;;;;;;;6.33;5.00;;;;;21.45;86.65;101028.13;4939368;28;46560;-72
2022/05/11 09:13:06;;;;;;;;;4.00;3.00;;;;;21.52;87.17;101030.63;4939208;28;45282;-72
2022/05/11 09:15:53;;;;;;;;;4.67;4.00;;;;;21.56;86.32;101043.06;4940573;28;45463;-72
2022/05/11 09:18:30;;;;;;;;;4.00;3.00;;;;;21.58;86.90;101033.16;4940808;28;45282;-72
2022/05/11 09:20:56;;;;;;;;;6.00;5.00;;;;;21.59;86.53;101033.09;4939064;28;46446;-72
2022/05/11 09:23:39;;;;;;;;;4.67;4.67;;;;;21.65;87.77;101029.34;4940123;28;45435;-72
2022/05/11 09:26:09;;;;;;;;;5.00;4.00;;;;;21.73;87.28;101032.66;4939287;28;45326;-72
2022/05/11 09:28:40;;;;;;;;;4.00;4.00;;;;;21.76;86.97;101037.94;4940587;28;45215;-72
2022/05/11 09:31:12;;;;;;;;;4.00;4.00;;;;;21.84;85.98;101035.00;4940452;28;46608;-72
2022/05/11 09:33:59;;;;;;;;;3.00;3.00;;;;;21.91;83.96;101031.19;4927264;28;45321;-72
2022/05/11 09:36:36;;;;;;;;;5.00;3.33;;;;;21.94;82.43;101034.66;4940292;28;45480;-73
2022/05/11 09:39:20;;;;;;;;;1.67;1.00;;;;;22.00;83.69;101030.00;4939967;28;45537;-72
2022/05/11 09:41:49;;;;;;;;;3.67;3.67;;;;;22.08;83.85;101025.25;4927399;28;45803;-73
2022/05/11 09:44:42;;;;;;;;;3.00;3.00;;;;;22.14;83.26;101033.13;4940009;28;45313;-72
2022/05/11 09:47:25;;;;;;;;;2.33;2.33;;;;;22.20;81.75;101027.56;4939722;28;45462;-74
2022/05/11 09:49:51;;;;;;;;;4.00;4.00;;;;;22.20;82.60;101016.78;4940277;28;45358;-72
2022/05/11 09:52:31;;;;;;;;;4.00;4.00;;;;;22.25;82.90;101020.19;4939758;28;46658;-72
2022/05/11 09:54:56;;;;;;;;;6.33;3.33;;;;;22.34;84.02;101022.59;4933602;28;45482;-71
2022/05/11 09:57:27;;;;;;;;;3.00;3.00;;;;;22.38;83.41;101018.00;4939643;28;45708;-74
2022/05/11 10:00:12;;;;;;;;;3.00;3.00;;;;;22.41;83.35;101013.34;4938748;28;45479;-72
2022/05/11 10:02:40;;;;;;;;;4.33;3.00;;;;;22.48;83.23;101020.31;4939481;28;46256;-72
2022/05/11 10:05:12;;;;;;;;;3.00;3.00;;;;;22.46;82.67;101003.31;4930150;28;45224;-72
2022/05/11 10:07:46;;;;;;;;;4.33;3.00;;;;;22.55;83.44;101009.31;4939593;28;45275;-72
2022/05/11 10:10:16;;;;;;;;;3.33;3.33;;;;;22.61;81.63;101036.88;4939791;28;45286;-74
2022/05/11 10:12:42;;;;;;;;;2.00;2.00;;;;;22.62;82.10;101029.69;4938675;28;47407;-71
2022/05/11 10:24:38;;;;;;;;;3.67;3.67;;;;;22.89;82.29;101025.13;4939359;28;45306;-72
2022/05/11 10:27:11;;;;;;;;;3.00;3.00;;;;;22.93;82.16;101013.31;4937587;28;45411;-70
2022/05/11 10:29:41;;;;;;;;;4.00;4.00;;;;;22.98;82.04;101008.66;4932972;28;45402;-70
2022/05/11 10:32:13;;;;;;;;;4.00;3.00;;;;;23.02;81.82;101006.72;4919031;28;45481;-72
2022/05/11 10:35:06;;;;;;;;;4.00;3.00;;;;;23.05;81.30;101010.16;4933308;28;45325;-69
2022/05/11 10:37:53;;;;;;;;;4.33;3.33;;;;;23.13;81.74;101009.88;4937930;28;45530;-71
2022/05/11 10:40:28;;;;;;;;;5.33;4.00;;;;;23.16;82.00;101002.53;4930551;28;45293;-73
2022/05/11 10:43:19;;;;;;;;;4.00;4.00;;;;;23.21;81.84;101005.94;4920101;28;45453;-70
2022/05/11 10:46:02;;;;;;;;;4.00;3.00;;;;;23.29;81.90;100999.41;4920848;28;46245;-72
2022/05/11 10:48:49;;;;;;;;;4.67;4.00;;;;;23.34;81.15;101000.97;4937892;28;45401;-71
2022/05/11 10:51:42;;;;;;;;;6.67;2.67;;;;;23.38;81.42;101002.59;4938858;28;45486;-71
2022/05/11 10:54:13;;;;;;;;;5.67;3.00;;;;;23.43;80.95;100995.19;4939188;28;45467;-70
2022/05/11 10:56:54;;;;;;;;;2.00;2.00;;;;;23.48;80.88;100990.50;4934274;28;45344;-73
2022/05/11 10:59:34;;;;;;;;;5.00;4.00;;;;;23.56;80.11;100989.34;4933963;28;45343;-71
2022/05/11 11:02:24;;;;;;;;;3.67;3.67;;;;;23.60;79.93;100991.84;4927255;28;45173;-70
2022/05/11 11:05:22;;;;;;;;;7.67;5.00;;;;;23.66;80.49;100988.94;4936649;28;45565;-71
2022/05/11 11:08:04;;;;;;;;;3.67;3.67;;;;;23.70;81.19;100978.88;4938702;28;45280;-73
2022/05/11 11:10:33;;;;;;;;;5.00;5.00;;;;;23.78;81.34;100987.56;4935596;28;45484;-72
2022/05/11 11:13:06;;;;;;;;;4.33;3.00;;;;;23.79;81.52;100971.31;4919671;28;45186;-72
2022/05/11 11:15:38;;;;;;;;;7.67;5.00;;;;;23.87;81.97;100978.22;4919442;28;45346;-71
2022/05/11 11:18:04;;;;;;;;;6.00;4.33;;;;;23.92;82.02;100982.47;4919683;28;45996;-72
2022/05/11 11:20:35;;;;;;;;;5.00;5.00;;;;;24.02;82.42;100975.75;4919421;28;45452;-73
2022/05/11 11:23:28;;;;;;;;;4.00;4.00;;;;;24.04;81.38;100975.69;4918550;28;45254;-71
2022/05/11 11:25:54;;;;;;;;;5.00;2.67;;;;;24.10;82.20;100969.13;4928095;28;45209;-72
2022/05/11 11:28:50;;;;;;;;;5.00;4.00;;;;;24.16;82.26;100980.53;4933529;28;46495;-73
2022/05/11 11:31:26;;;;;;;;;3.00;3.00;;;;;24.25;80.74;100976.56;4903406;28;45524;-71
2022/05/11 11:34:00;;;;;;;;;2.33;2.00;;;;;24.31;81.05;100966.38;4936473;28;45471;-71
2022/05/11 11:36:27;;;;;;;;;4.33;4.00;;;;;24.37;81.06;100965.25;4938485;28;45640;-71
2022/05/11 11:38:53;;;;;;;;;3.00;3.00;;;;;24.42;79.05;100955.16;4938999;28;45698;-72
2022/05/11 11:41:30;;;;;;;;;3.00;3.00;;;;;24.51;79.09;100973.63;4936350;28;45278;-73
2022/05/11 11:44:05;;;;;;;;;4.67;3.00;;;;;24.62;79.06;100956.97;4926824;28;45291;-72
2022/05/11 11:46:32;;;;;;;;;3.00;3.00;;;;;24.70;78.83;100960.16;4927648;28;45435;-74
2022/05/11 11:49:19;;;;;;;;;3.00;3.00;;;;;24.79;79.09;100954.34;4935909;28;46584;-72
2022/05/11 11:51:50;;;;;;;;;5.00;3.00;;;;;24.87;77.42;100953.97;4929215;28;45436;-73
2022/05/11 11:54:47;;;;;;;;;2.67;2.67;;;;;24.99;77.57;100958.84;4933473;28;45318;-73
2022/05/11 11:57:16;;;;;;;;;3.00;3.00;;;;;25.08;77.19;100950.31;4933872;28;45492;-74
2022/05/11 11:59:53;;;;;;;;;4.00;2.00;;;;;25.16;76.23;100949.09;4937558;28;47426;-71
2022/05/11 12:02:27;;;;;;;;;2.67;2.67;;;;;25.31;76.22;100960.03;4937974;28;45329;-71
2022/05/11 12:05:01;;;;;;;;;3.00;2.00;;;;;25.45;75.18;100953.06;4946205;28;45476;-73